Time;durP1;ratioP1;P1;durP2;ratioP2;P2;SDS_P1;SDS_P2;PMS_P1;PMS_P2;Temp;Humidity;BMP_temperature;BMP_pressure;BME280_temperature;BME280_humidity;BME280_pressure;Samples;Min_cycle;Max_cycle;Signal;HPM_P1;HPM_P2
2024/02/29 00:01:24;;;;;;;14.35;8.55;;;;;;;-144.05;62.16;57010.25;5011624;28;20029;-81
2024/02/29 00:03:49;;;;;;;17.70;8.85;;;4.20;99.90;;;-144.05;61.91;57035.75;5012152;28;20073;-82
2024/02/29 00:06:15;;;;;;;15.13;8.02;;;6.80;99.90;;;-144.05;61.97;57050.63;5010479;28;20053;-82
2024/02/29 00:08:41;;;;;;;15.52;7.88;;;6.60;99.90;;;-144.05;61.68;57014.50;5011886;28;20099;-82
2024/02/29 00:11:07;;;;;;;17.20;8.70;;;;;;;-144.05;61.49;57025.13;5011947;28;20049;-82
2024/02/29 00:13:33;;;;;;;17.70;8.27;;;;;;;-144.05;61.32;57016.63;5011623;28;20022;-83
2024/02/29 00:16:00;;;;;;;16.90;8.82;;;;;;;-144.05;61.09;57006.00;5011241;28;20581;-83
2024/02/29 00:18:25;;;;;;;16.23;7.78;;;2.10;99.90;;;-144.05;61.02;57042.13;5009958;28;20026;-82
2024/02/29 00:20:52;;;;;;;16.02;7.95;;;;;;;-144.05;60.82;57031.50;5011545;28;20041;-81
2024/02/29 00:23:18;;;;;;;18.52;8.20;;;;;;;-144.05;61.94;56999.63;5011232;28;20036;-80
2024/02/29 00:25:44;;;;;;;15.57;9.07;;;2.30;99.90;;;-144.05;61.57;57050.63;5017900;28;20028;-82
2024/02/29 00:28:10;;;;;;;16.02;8.02;;;;;;;-144.05;61.40;57042.13;5011022;28;20094;-83
2024/02/29 00:30:36;;;;;;;15.77;7.53;;;6.90;99.90;;;-144.05;61.37;57003.88;5010208;28;20563;-82
2024/02/29 00:33:03;;;;;;;15.68;8.15;;;;;;;-144.05;61.50;57044.25;5011376;28;20116;-82
2024/02/29 00:35:31;;;;;;;15.20;7.70;;;6.40;99.90;;;-144.05;61.00;57003.88;5026600;28;20122;-80
2024/02/29 00:37:57;;;;;;;15.27;8.50;;;;;;;-144.05;61.15;57054.88;5011454;28;20407;-81
2024/02/29 00:40:23;;;;;;;14.88;7.70;;;6.10;99.90;;;-144.05;61.69;57046.38;5011628;28;20492;-80
2024/02/29 00:42:50;;;;;;;15.60;7.65;;;5.50;99.90;;;-144.05;61.84;57020.88;5011139;28;20030;-81
2024/02/29 00:45:16;;;;;;;16.98;7.70;;;1.20;99.90;;;-144.05;61.54;57048.50;5010138;28;20026;-82
2024/02/29 00:47:42;;;;;;;17.02;7.93;;;1.70;99.90;;;-144.05;61.72;57018.75;5011391;28;20056;-82
2024/02/29 00:50:08;;;;;;;13.25;8.18;;;2.10;99.90;;;-144.05;61.75;57014.50;5011355;28;20036;-81
2024/02/29 00:52:34;;;;;;;15.30;8.10;;;;;;;-144.05;61.87;57003.88;5010431;28;20033;-80
2024/02/29 00:55:03;;;;;;;15.50;7.72;;;;;;;-144.05;62.82;57044.25;5014235;28;20057;-80
2024/02/29 00:57:29;;;;;;;15.77;7.55;;;;;;;-144.05;62.67;57023.00;5014962;28;20026;-83
2024/02/29 00:59:55;;;;;;;15.45;8.45;;;1.80;99.90;;;-144.05;62.25;57014.50;5013489;28;20445;-84
2024/02/29 01:02:20;;;;;;;16.08;7.70;;;6.40;99.90;;;-144.05;62.24;57023.00;5014118;28;20179;-81
2024/02/29 01:04:47;;;;;;;15.82;8.18;;;;;;;-144.05;61.83;57027.25;5030299;28;20064;-81
2024/02/29 01:07:12;;;;;;;14.88;8.07;;;2.60;99.90;;;-144.05;61.56;57035.75;5022032;28;20037;-81
2024/02/29 01:09:39;;;;;;;16.05;7.70;;;;;;;-144.05;61.73;57014.50;5034480;28;20017;-82
2024/02/29 01:12:05;;;;;;;14.32;7.75;;;2.20;99.90;;;-144.05;61.62;57048.50;5014306;28;20053;-84
2024/02/29 01:14:33;;;;;;;14.77;8.07;;;;;;;-144.05;61.69;57050.63;5019389;28;20025;-83
2024/02/29 01:17:00;;;;;;;14.00;8.05;;;;;;;-144.05;61.73;57018.75;5016986;28;20034;-81
2024/02/29 01:19:26;;;;;;;15.65;8.18;;;;;;;-144.05;61.95;57008.13;5035881;28;20031;-83
2024/02/29 01:21:52;;;;;;;16.83;9.02;;;2.10;99.90;;;-144.05;61.66;57035.75;5032733;28;20113;-81
2024/02/29 01:24:18;;;;;;;13.70;7.78;;;1.60;99.90;;;-144.05;61.33;57031.50;5021280;28;20034;-82
2024/02/29 01:26:44;;;;;;;17.15;8.75;;;2.10;99.90;;;-144.05;61.78;57008.13;5018606;28;20026;-82
2024/02/29 01:29:10;;;;;;;17.88;9.10;;;;;;;-144.05;61.55;57006.00;5017033;28;20041;-82
2024/02/29 01:31:36;;;;;;;19.08;8.20;;;1.70;99.90;;;-144.05;61.36;57046.38;5016663;28;20526;-84
2024/02/29 01:34:02;;;;;;;15.32;8.30;;;;;;;-144.05;61.58;57025.13;5016195;28;20033;-79
2024/02/29 01:36:29;;;;;;;15.95;8.13;;;;;;;-144.05;61.71;57027.25;5018819;28;20050;-82
2024/02/29 01:38:54;;;;;;;15.85;7.82;;;1.10;99.90;;;-144.05;61.57;57008.13;5020389;28;20026;-82
2024/02/29 01:41:22;;;;;;;14.68;7.75;;;5.30;99.90;;;-144.05;62.28;57014.50;5014533;28;20686;-80
2024/02/29 01:43:54;;;;;;;16.67;8.15;;;5.30;99.90;;;-144.05;62.02;57040.00;5014051;28;20483;-82
2024/02/29 01:46:21;;;;;;;14.57;8.32;;;1.20;99.90;;;-144.05;61.96;57052.75;5012305;28;20136;-81
2024/02/29 01:48:50;;;;;;;16.20;8.05;;;1.60;99.90;;;-144.05;61.85;57052.75;5014221;28;20050;-81
2024/02/29 01:51:18;;;;;;;14.38;8.13;;;1.30;99.90;;;-144.05;61.63;57048.50;5013172;28;20029;-83
2024/02/29 01:53:44;;;;;;;14.65;8.05;;;;;;;-144.05;61.58;57046.38;5012854;28;20026;-83
2024/02/29 01:56:15;;;;;;;18.42;8.73;;;5.30;99.90;;;-144.05;61.73;57067.59;5013852;28;20026;-80
2024/02/29 01:58:42;;;;;;;15.13;8.30;;;6.10;99.90;;;-144.05;61.94;57018.75;5013904;28;20022;-81
2024/02/29 02:01:08;;;;;;;14.30;8.15;;;;;;;-144.05;61.13;57046.38;5013510;28;20037;-83
2024/02/29 02:03:34;;;;;;;15.05;7.80;;;2.10;99.90;;;-144.05;61.38;57056.97;5013296;28;20026;-82
2024/02/29 02:06:00;;;;;;;16.38;8.30;;;6.50;99.90;;;-144.05;61.52;57054.88;5011257;28;20030;-81
2024/02/29 02:08:30;;;;;;;16.10;8.35;;;;;;;-144.05;61.07;57048.50;5013169;28;20024;-83
2024/02/29 02:10:56;;;;;;;15.98;8.32;;;;;;;-144.05;60.74;57042.13;5012701;28;20144;-83
2024/02/29 02:13:22;;;;;;;16.00;8.52;;;;;;;-144.05;60.53;57029.38;5013260;28;20040;-82
2024/02/29 02:15:49;;;;;;;16.15;8.48;;;6.90;99.90;;;-144.05;60.53;57042.13;5013002;28;20022;-81
2024/02/29 02:18:15;;;;;;;16.98;7.90;;;6.80;99.90;;;-144.05;60.43;57033.63;5012626;28;20022;-82
2024/02/29 02:20:41;;;;;;;15.05;7.53;;;1.50;99.90;;;-144.05;60.50;57014.50;5011776;28;20026;-80
2024/02/29 02:23:06;;;;;;;14.60;7.35;;;1.70;99.90;;;-144.05;60.44;57033.63;5012740;28;20072;-82
2024/02/29 02:25:33;;;;;;;16.15;7.82;;;;;;;-144.05;60.29;56999.63;5011824;28;20050;-81
2024/02/29 02:27:58;;;;;;;17.95;8.20;;;2.60;99.90;;;-144.05;60.00;57023.00;5012425;28;20030;-81
2024/02/29 02:30:24;;;;;;;15.40;8.15;;;2.30;99.90;;;-144.05;59.82;57035.75;5011451;28;20124;-82
2024/02/29 02:32:50;;;;;;;16.70;7.72;;;;;;;-144.05;59.74;57023.00;5012434;28;20029;-82
2024/02/29 02:35:16;;;;;;;16.55;8.60;;;6.20;99.90;;;-144.05;59.41;57042.13;5011074;28;20022;-82
2024/02/29 02:37:43;;;;;;;13.57;7.93;;;;;;;-144.05;59.06;57042.13;5012267;28;20025;-81
2024/02/29 02:40:10;;;;;;;15.38;7.97;;;2.30;99.90;;;-144.05;59.38;57086.72;5010827;28;20580;-80
2024/02/29 02:42:36;;;;;;;17.48;8.38;;;;;;;-144.05;59.21;56999.63;5011506;28;20060;-82
2024/02/29 02:45:03;;;;;;;16.60;7.95;;;;;;;-144.05;59.17;57010.25;5011091;28;20344;-80
2024/02/29 02:47:29;;;;;;;15.07;7.55;;;2.00;99.90;;;-144.05;58.91;57023.00;5011745;28;20105;-83
2024/02/29 02:49:55;;;;;;;19.00;7.25;;;;;;;-144.05;58.70;57040.00;5012039;28;20056;-81
2024/02/29 02:52:21;;;;;;;17.25;7.85;;;;;;;-144.05;58.71;57040.00;5013657;28;20456;-82
2024/02/29 02:54:47;;;;;;;14.95;7.47;;;1.80;99.90;;;-144.05;58.67;57048.50;5013363;28;20045;-83
2024/02/29 02:57:13;;;;;;;15.63;7.50;;;;;;;-144.05;58.74;57014.50;5013359;28;20040;-84
2024/02/29 02:59:39;;;;;;;14.57;7.55;;;;;;;-144.05;58.77;57061.22;5013512;28;20524;-80
2024/02/29 03:02:05;;;;;;;15.45;7.75;;;1.90;99.90;;;-144.05;58.65;57042.13;5013034;28;20037;-82
2024/02/29 03:04:31;;;;;;;14.55;7.28;;;2.30;99.90;;;-144.05;58.60;57046.38;5011210;28;20026;-83
2024/02/29 03:06:57;;;;;;;19.00;7.93;;;2.00;99.90;;;-144.05;58.02;57033.63;5012234;28;20030;-80
2024/02/29 03:09:23;;;;;;;18.20;8.45;;;;;;;-144.05;58.14;57027.25;5012347;28;20018;-83
2024/02/29 03:11:49;;;;;;;15.13;6.80;;;;;;;-144.05;57.66;57076.09;5012841;28;20025;-79
2024/02/29 03:14:15;;;;;;;16.73;8.98;;;6.80;99.90;;;-144.05;57.49;57031.50;5011267;28;20099;-82
2024/02/29 03:16:41;;;;;;;15.65;7.63;;;2.30;99.90;;;-144.05;57.07;57031.50;5012517;28;20486;-82
2024/02/29 03:19:08;;;;;;;15.18;8.57;;;;;;;-144.05;56.91;57033.63;5011368;28;20052;-80
2024/02/29 03:21:34;;;;;;;14.70;8.23;;;;;;;-144.05;56.91;57050.63;5010924;28;20017;-81
2024/02/29 03:24:00;;;;;;;16.85;8.07;;;1.90;99.90;;;-144.05;56.96;57067.59;5011295;28;20040;-80
2024/02/29 03:26:28;;;;;;;17.27;8.65;;;;;;;-144.05;56.77;57059.09;5010601;28;20049;-80
2024/02/29 03:28:55;;;;;;;16.05;7.60;;;;;;;-144.05;56.54;57014.50;5010158;28;20053;-80
2024/02/29 03:31:20;;;;;;;15.50;8.63;;;1.60;99.90;;;-144.05;56.56;57042.13;5005111;28;20033;-80
2024/02/29 03:33:47;;;;;;;13.55;7.60;;;;;;;-144.05;56.28;57010.25;5012012;28;20037;-80
2024/02/29 03:36:12;;;;;;;14.82;7.68;;;1.40;99.90;;;-144.05;55.72;57027.25;5011399;28;20030;-80
2024/02/29 03:38:41;;;;;;;16.67;7.43;;;5.20;99.90;;;-144.05;55.62;57023.00;5011717;28;20026;-80
2024/02/29 03:41:07;;;;;;;18.15;7.75;;;1.50;99.90;;;-144.05;55.67;57059.09;5010274;28;20109;-80
2024/02/29 03:43:36;;;;;;;14.13;7.18;;;1.70;99.90;;;-144.05;55.00;57052.75;5011721;28;20022;-80
2024/02/29 03:46:03;;;;;;;14.63;7.63;;;1.50;99.90;;;-144.05;55.28;57029.38;5011175;28;20026;-79
2024/02/29 03:48:29;;;;;;;14.13;7.18;;;1.60;99.90;;;-144.05;55.23;57050.63;5015090;28;20026;-83
2024/02/29 03:50:55;;;;;;;15.98;7.57;;;;;;;-144.05;55.15;57029.38;5021510;28;20030;-81
2024/02/29 03:53:21;;;;;;;14.10;8.02;;;;;;;-144.05;55.69;57027.25;5011198;28;20025;-83
2024/02/29 03:55:49;;;;;;;14.70;7.55;;;5.10;99.90;;;-144.05;55.02;57035.75;5011423;28;20044;-81
2024/02/29 03:58:15;;;;;;;16.27;7.93;;;1.70;99.90;;;-144.05;54.97;57061.22;5010278;28;20344;-80
2024/02/29 04:00:44;;;;;;;16.45;7.68;;;;;;;-144.05;54.80;57012.38;5011456;28;20042;-82
2024/02/29 04:03:10;;;;;;;15.50;7.13;;;;;;;-144.05;54.56;57044.25;5009974;28;20466;-80
2024/02/29 04:05:37;;;;;;;15.43;7.38;;;;;;;-144.05;54.42;56989.00;5009759;28;20018;-80
2024/02/29 04:08:03;;;;;;;12.35;6.50;;;;;;;-144.05;53.98;56997.50;5011345;28;20046;-81
2024/02/29 04:10:30;;;;;;;16.58;8.05;;;;;;;-144.05;53.93;56984.78;5026406;28;20022;-80
2024/02/29 04:12:58;;;;;;;14.93;7.13;;;1.40;99.90;;;-144.05;53.57;57012.38;5030409;28;20077;-81
2024/02/29 04:15:24;;;;;;;17.15;7.45;;;1.30;99.90;;;-144.05;53.55;57052.75;5010026;28;20104;-81
2024/02/29 04:17:50;;;;;;;14.52;7.43;;;1.10;99.90;;;-144.05;53.50;57035.75;5011128;28;20442;-82
2024/02/29 04:20:16;;;;;;;13.45;6.68;;;5.60;99.90;;;-144.05;53.49;57035.75;5009751;28;20034;-83
2024/02/29 04:22:43;;;;;;;12.13;6.57;;;;;;;-144.05;53.56;57003.88;5011473;28;20448;-79
2024/02/29 04:25:10;;;;;;;15.88;7.53;;;1.40;99.90;;;-144.05;53.23;57040.00;5011277;28;20090;-79
2024/02/29 04:27:37;;;;;;;13.48;6.28;;;1.80;99.90;;;-144.05;53.22;57050.63;5011463;28;20121;-82
2024/02/29 04:30:05;;;;;;;13.20;6.88;;;1.90;99.90;;;-144.05;52.91;57023.00;5013197;28;20030;-82
2024/02/29 04:32:32;;;;;;;13.55;7.18;;;1.50;99.90;;;-144.05;52.73;57025.13;5016091;28;20395;-81
2024/02/29 04:34:58;;;;;;;13.30;6.78;;;;;;;-144.05;52.81;57033.63;5015672;28;20109;-79
2024/02/29 04:37:24;;;;;;;13.15;6.65;;;;;;;-144.05;52.41;57023.00;5014173;28;20033;-80
2024/02/29 04:39:50;;;;;;;14.25;7.05;;;;;;;-144.05;52.26;57035.75;5013761;28;20029;-82
2024/02/29 04:42:16;;;;;;;14.25;7.13;;;1.30;99.90;;;-144.05;52.48;57033.63;5015311;28;20050;-80
2024/02/29 04:44:43;;;;;;;15.05;7.28;;;;;;;-144.05;51.93;57016.63;5013594;28;20057;-81
2024/02/29 04:47:08;;;;;;;16.88;7.10;;;2.30;99.90;;;-144.05;51.81;57052.75;5013369;28;20038;-81
2024/02/29 04:49:35;;;;;;;20.45;6.88;;;;;;;-144.05;51.48;57065.47;5015472;28;20033;-82
2024/02/29 04:52:01;;;;;;;14.05;6.97;;;6.80;99.90;;;-144.05;51.83;57042.13;5015007;28;20491;-81
2024/02/29 04:54:27;;;;;;;13.60;6.80;;;;;;;-144.05;51.50;57033.63;5013577;28;20037;-83
2024/02/29 04:56:53;;;;;;;11.77;6.28;;;1.90;99.90;;;-144.05;51.26;57052.75;5014315;28;20026;-79
2024/02/29 04:59:18;;;;;;;15.07;6.72;;;1.60;99.90;;;-144.05;51.60;57031.50;5020329;28;21369;-78
2024/02/29 05:01:44;;;;;;;14.18;6.50;;;5.10;99.90;;;-144.05;51.54;57048.50;5015099;28;20045;-83
2024/02/29 05:04:11;;;;;;;14.05;6.55;;;;;;;-144.05;51.19;57031.50;5013363;28;20048;-82
2024/02/29 05:06:37;;;;;;;15.35;6.82;;;;;;;-144.05;51.56;57023.00;5014346;28;20523;-80
2024/02/29 05:09:03;;;;;;;14.55;7.22;;;1.50;99.90;;;-144.05;50.95;57018.75;5013135;28;20030;-79
2024/02/29 05:11:29;;;;;;;14.23;6.60;;;;;;;-144.05;50.66;57048.50;5014258;28;20129;-80
2024/02/29 05:13:57;;;;;;;11.88;6.05;;;;;;;-144.05;50.81;57016.63;5015346;28;20041;-79
2024/02/29 05:16:23;;;;;;;13.52;6.70;;;1.00;99.90;;;-144.05;50.48;57006.00;5015769;28;20030;-84
2024/02/29 05:18:49;;;;;;;15.10;6.70;;;;;;;-144.05;50.33;57025.13;5016052;28;20133;-80
2024/02/29 05:21:16;;;;;;;14.35;6.68;;;1.70;99.90;;;-144.05;50.15;57031.50;5016415;28;20029;-84
2024/02/29 05:23:42;;;;;;;13.68;6.65;;;;;;;-144.05;50.16;57025.13;5014183;28;20487;-82
2024/02/29 05:26:10;;;;;;;11.82;6.43;;;;;;;-144.05;49.85;57054.88;5015558;28;20049;-82
2024/02/29 05:28:36;;;;;;;13.18;6.18;;;;;;;-144.05;49.32;57018.75;5013927;28;20026;-82
2024/02/29 05:31:03;;;;;;;10.68;5.97;;;1.70;99.90;;;-144.05;49.04;56997.50;5014803;28;20026;-83
2024/02/29 05:33:30;;;;;;;13.07;6.45;;;;;;;-144.05;48.75;57020.88;5013991;28;20431;-80
2024/02/29 05:35:56;;;;;;;13.27;6.60;;;;;;;-144.05;48.37;57048.50;5013124;28;20030;-80
2024/02/29 05:38:22;;;;;;;11.40;5.38;;;6.60;99.90;;;-144.05;47.93;57031.50;5013897;28;20026;-82
2024/02/29 05:40:48;;;;;;;11.93;5.68;;;2.30;99.90;;;-144.05;48.01;57048.50;5013038;28;20042;-82
2024/02/29 05:43:14;;;;;;;12.55;5.20;;;2.30;99.90;;;-144.05;48.10;57031.50;5012124;28;20491;-79
2024/02/29 05:45:40;;;;;;;13.07;6.07;;;;;;;-144.05;47.64;57001.75;5013231;28;20030;-78
2024/02/29 05:48:07;;;;;;;12.13;5.70;;;;;;;-144.05;47.57;57027.25;5011931;28;20030;-80
2024/02/29 05:50:33;;;;;;;13.38;5.60;;;1.30;99.90;;;-144.05;47.49;57029.38;5013712;28;20026;-82
2024/02/29 05:52:59;;;;;;;11.88;5.95;;;1.80;99.90;;;-144.05;47.32;57014.50;5011847;28;20026;-82
2024/02/29 05:55:25;;;;;;;14.82;6.32;;;2.10;99.90;;;-144.05;46.94;57012.38;5013561;28;20108;-81
2024/02/29 05:57:51;;;;;;;11.90;5.43;;;7.10;99.90;;;-144.05;47.00;57018.75;5011844;28;20511;-80
2024/02/29 06:00:17;;;;;;;11.38;5.53;;;1.10;99.90;;;-144.05;46.54;57031.50;5013952;28;20057;-79
2024/02/29 06:02:44;;;;;;;11.88;5.63;;;6.20;99.90;;;-144.05;46.50;57042.13;5012174;28;20018;-80
2024/02/29 06:05:10;;;;;;;8.32;4.63;;;;;;;-144.05;46.49;57020.88;5011837;28;20045;-80
2024/02/29 06:07:36;;;;;;;12.07;5.63;;;;;;;-144.05;45.87;57014.50;5011671;28;20033;-80
2024/02/29 06:10:04;;;;;;;10.73;5.50;;;5.40;99.90;;;-144.05;46.16;57016.63;5013555;28;20029;-80
2024/02/29 06:12:30;;;;;;;9.25;5.63;;;2.10;99.90;;;-144.05;45.37;57027.25;5013078;28;20033;-82
2024/02/29 06:14:57;;;;;;;11.15;5.53;;;1.90;99.90;;;-144.05;45.16;57040.00;5012383;28;20030;-81
2024/02/29 06:17:23;;;;;;;11.45;5.03;;;2.40;99.90;;;-144.05;45.66;57014.50;5014335;28;20156;-82
2024/02/29 06:19:49;;;;;;;8.02;4.82;;;;;;;-144.05;45.34;57031.50;5013344;28;20160;-82
2024/02/29 06:22:15;;;;;;;10.20;5.05;;;;;;;-144.05;45.28;56999.63;5012707;28;20030;-82
2024/02/29 06:24:41;;;;;;;12.25;5.22;;;7.40;99.90;;;-144.05;45.37;57023.00;5012851;28;20112;-83
2024/02/29 06:27:07;;;;;;;10.63;4.88;;;;;;;-144.05;45.27;57014.50;5012904;28;20541;-82
2024/02/29 06:29:33;;;;;;;8.43;5.18;;;1.60;99.90;;;-144.05;45.09;57027.25;5016375;28;20032;-81
2024/02/29 06:32:00;;;;;;;10.73;5.28;;;2.10;99.90;;;-144.05;45.21;57016.63;5024748;28;20026;-81
2024/02/29 06:34:26;;;;;;;8.82;4.85;;;2.30;99.90;;;-144.05;45.32;57025.13;5029045;28;20467;-80
2024/02/29 06:36:53;;;;;;;11.85;5.90;;;2.00;99.90;;;-144.05;45.18;57023.00;5011358;28;20660;-83
2024/02/29 06:39:20;;;;;;;11.32;5.28;;;;;;;-144.05;45.23;57023.00;5012582;28;20109;-81
2024/02/29 06:41:46;;;;;;;10.82;4.93;;;1.80;99.90;;;-144.05;45.19;57018.75;5011594;28;20025;-83
2024/02/29 06:44:12;;;;;;;11.07;5.40;;;;;;;-144.05;45.07;57050.63;5011105;28;20125;-82
2024/02/29 06:46:38;;;;;;;9.32;5.78;;;2.10;99.90;;;-144.05;44.95;57027.25;5011075;28;20053;-82
2024/02/29 06:49:04;;;;;;;11.23;4.88;;;4.20;99.90;;;-144.05;44.71;57008.13;5010849;28;20034;-79
2024/02/29 06:51:31;;;;;;;10.13;4.68;;;4.40;99.90;;;-144.05;45.14;57033.63;5011044;28;20030;-82
2024/02/29 06:53:57;;;;;;;9.93;5.55;;;;;;;-144.05;44.78;57006.00;5013648;28;20026;-81
2024/02/29 06:56:24;;;;;;;10.13;4.65;;;4.60;99.90;;;-144.05;44.94;57012.38;5014344;28;20028;-81
2024/02/29 06:58:52;;;;;;;10.73;4.65;;;6.60;99.90;;;-144.05;44.63;57018.75;5016450;28;20063;-83
2024/02/29 07:01:19;;;;;;;10.80;4.65;;;4.80;99.90;;;-144.05;45.02;57006.00;5016155;28;20049;-83
2024/02/29 07:03:49;;;;;;;9.35;4.28;;;6.30;99.90;;;-144.05;44.75;56997.50;5033877;28;20048;-81
2024/02/29 07:06:15;;;;;;;9.90;4.53;;;6.80;99.90;;;-144.05;44.83;57035.75;5024465;28;20038;-84
2024/02/29 07:08:41;;;;;;;8.52;4.70;;;7.30;99.90;;;-144.05;44.80;57023.00;5020179;28;20021;-83
2024/02/29 07:11:11;;;;;;;11.32;4.65;;;;;;;-144.05;44.82;57023.00;5016011;28;20105;-82
2024/02/29 07:13:38;;;;;;;13.77;5.70;;;6.60;99.90;;;-144.05;45.18;57012.38;5017160;28;20018;-84
2024/02/29 07:16:04;;;;;;;9.13;4.45;;;7.20;99.90;;;-144.05;44.93;57033.63;5017082;28;20030;-82
2024/02/29 07:18:30;;;;;;;12.23;5.68;;;7.40;99.90;;;-144.05;45.23;57018.75;5016382;28;20026;-83
2024/02/29 07:20:56;;;;;;;9.70;5.35;;;6.80;99.90;;;-144.05;44.77;57008.13;5015035;28;20101;-82
2024/02/29 07:23:24;;;;;;;9.45;4.88;;;6.50;99.90;;;-144.05;45.04;57006.00;5016760;28;20112;-82
2024/02/29 07:25:50;;;;;;;12.05;5.32;;;;;;;-144.05;44.77;56974.16;5015636;28;20033;-81
2024/02/29 07:28:16;;;;;;;10.50;4.65;;;4.30;99.90;;;-144.05;45.04;57010.25;5014735;28;20026;-82
2024/02/29 07:30:42;;;;;;;9.43;5.53;;;;;;;-144.05;45.35;57046.38;5015133;28;20052;-80
2024/02/29 07:33:08;;;;;;;9.80;4.93;;;7.80;99.90;;;-144.05;44.93;56982.66;5016394;28;20113;-82
2024/02/29 07:35:34;;;;;;;9.43;4.30;;;;;;;-144.05;45.27;56993.25;5013548;28;20084;-83
2024/02/29 07:38:03;;;;;;;10.48;4.45;;;6.90;99.90;;;-144.05;45.27;57001.75;5014624;28;20076;-82
2024/02/29 07:40:30;;;;;;;8.95;4.72;;;;;;;-144.05;45.37;57010.25;5014776;28;20041;-83
2024/02/29 07:42:56;;;;;;;9.18;5.10;;;4.70;99.90;;;-144.05;45.27;56995.38;5015718;28;20033;-83
2024/02/29 07:45:21;;;;;;;9.02;5.07;;;4.70;99.90;;;-144.05;45.13;57006.00;5015655;28;20056;-80
2024/02/29 07:47:47;;;;;;;8.90;4.40;;;7.20;99.90;;;-144.05;44.92;56978.41;5014874;28;20491;-82
2024/02/29 07:50:14;;;;;;;8.43;4.47;;;;;;;-144.05;44.67;56984.78;5014584;28;20034;-82
2024/02/29 07:52:40;;;;;;;8.27;4.22;;;6.50;99.90;;;-144.05;44.67;56974.16;5014429;28;20022;-83
2024/02/29 07:55:06;;;;;;;6.75;4.30;;;8.40;99.90;;;-144.05;44.84;56984.78;5013755;28;20033;-81
2024/02/29 07:57:32;;;;;;;9.57;4.68;;;7.30;99.90;;;-144.05;44.25;56991.13;5015255;28;20526;-82
2024/02/29 07:59:59;;;;;;;7.85;3.80;;;;;;;-144.05;43.98;57008.13;5015441;28;20040;-82
2024/02/29 08:02:25;;;;;;;7.60;4.65;;;7.40;99.90;;;-144.05;44.18;56976.28;5013630;28;20030;-81
2024/02/29 08:04:52;;;;;;;7.90;3.90;;;;;;;-144.05;43.80;56997.50;5017191;28;20088;-80
2024/02/29 08:07:17;;;;;;;10.20;4.65;;;6.80;99.90;;;-144.05;43.79;56993.25;5016878;28;20030;-82
2024/02/29 08:09:43;;;;;;;10.23;4.13;;;7.40;99.90;;;-144.05;43.50;57001.75;5018735;28;20036;-85
2024/02/29 08:12:09;;;;;;;8.93;3.97;;;7.40;99.90;;;-144.05;42.81;56995.38;5019695;28;20518;-83
2024/02/29 08:14:35;;;;;;;6.90;3.75;;;8.90;99.90;;;-144.05;42.79;57003.88;5019636;28;20040;-81
2024/02/29 08:17:01;;;;;;;10.52;4.05;;;;;;;-144.05;43.07;57012.38;5016991;28;20028;-83
2024/02/29 08:19:27;;;;;;;12.30;4.15;;;7.30;99.90;;;-144.05;42.24;56989.00;5025954;28;20045;-78
2024/02/29 08:21:53;;;;;;;6.85;3.63;;;7.10;99.90;;;-144.05;42.09;56991.13;5025151;28;20037;-82
2024/02/29 08:24:19;;;;;;;5.00;3.00;;;10.80;99.90;;;-144.05;41.49;56961.41;5026269;28;20034;-82
2024/02/29 08:26:45;;;;;;;6.30;3.00;;;7.20;99.90;;;-144.05;40.31;56999.63;5020163;28;20030;-80
2024/02/29 08:29:13;;;;;;;7.10;3.28;;;10.80;99.90;;;-144.05;40.58;56991.13;5028002;28;20034;-81
2024/02/29 08:31:41;;;;;;;5.63;3.35;;;7.50;99.90;;;-144.05;40.22;56980.53;5010939;28;20749;-80
2024/02/29 08:34:07;;;;;;;4.75;2.72;;;8.20;99.90;;;-144.05;39.51;56982.66;5014564;28;20034;-82
2024/02/29 08:36:33;;;;;;;5.57;3.30;;;7.60;99.90;;;-144.05;39.30;56989.00;5013816;28;20443;-80
2024/02/29 08:38:59;;;;;;;6.68;3.03;;;10.90;99.90;;;-144.05;39.24;56997.50;5014734;28;20515;-81
2024/02/29 08:41:27;;;;;;;5.25;2.80;;;8.00;99.90;;;-144.05;38.80;56972.03;5015980;28;20077;-80
2024/02/29 08:43:53;;;;;;;4.28;2.72;;;7.60;99.90;;;-144.05;38.55;56993.25;5015116;28;20491;-78
2024/02/29 08:46:19;;;;;;;4.88;2.95;;;14.10;99.90;;;-144.05;38.70;56993.25;5015455;28;20040;-82
2024/02/29 08:48:48;;;;;;;4.43;2.78;;;7.60;99.60;;;-144.05;37.98;56969.91;5015344;28;20022;-82
2024/02/29 08:51:14;;;;;;;4.28;2.58;;;7.50;99.70;;;-144.05;38.18;56969.91;5015644;28;20117;-81
2024/02/29 08:53:39;;;;;;;7.32;2.90;;;11.00;99.90;;;-144.05;37.88;57014.50;5015782;28;20539;-80
2024/02/29 08:56:06;;;;;;;6.03;2.72;;;;;;;-144.05;37.98;56969.91;5014955;28;20026;-81
2024/02/29 08:58:32;;;;;;;4.28;2.45;;;8.40;98.90;;;-144.05;37.50;56982.66;5014379;28;20022;-81
2024/02/29 09:00:57;;;;;;;4.53;2.50;;;8.50;98.40;;;-144.05;37.41;57006.00;5014644;28;20037;-82
2024/02/29 09:03:23;;;;;;;5.68;2.97;;;8.00;98.10;;;-144.05;37.20;56963.53;5014675;28;20029;-81
2024/02/29 09:05:50;;;;;;;4.85;2.47;;;;;;;-144.05;36.92;56980.53;5014548;28;20026;-81
2024/02/29 09:08:17;;;;;;;5.20;2.55;;;14.20;99.00;;;-144.05;36.21;56989.00;5030925;28;20127;-80
2024/02/29 09:10:43;;;;;;;4.15;2.42;;;14.40;98.50;;;-144.05;36.47;56972.03;5031174;28;20026;-80
2024/02/29 09:13:09;;;;;;;4.43;2.38;;;;;;;-144.05;36.02;56984.78;5024659;28;20901;-83
2024/02/29 09:15:37;;;;;;;4.75;2.60;;;14.40;97.60;;;-144.05;35.88;56972.03;5018282;28;20486;-81
2024/02/29 09:18:04;;;;;;;4.88;2.25;;;7.80;95.10;;;-144.05;36.46;56984.78;5014384;28;20105;-81
2024/02/29 09:20:30;;;;;;;3.70;2.30;;;;;;;-144.05;36.61;56957.16;5013451;28;20026;-81
2024/02/29 09:22:57;;;;;;;4.18;2.53;;;8.20;96.60;;;-144.05;36.78;56974.16;5014870;28;20076;-82
2024/02/29 09:25:23;;;;;;;5.25;2.60;;;8.30;96.20;;;-144.05;36.53;56959.28;5016108;28;20380;-80
2024/02/29 09:27:49;;;;;;;4.78;2.60;;;13.90;97.30;;;-144.05;36.56;56974.16;5014482;28;20037;-82
2024/02/29 09:30:16;;;;;;;3.95;2.15;;;13.80;97.00;;;-144.05;36.05;57001.75;5027090;28;20022;-80
2024/02/29 09:32:43;;;;;;;3.63;2.58;;;8.50;95.30;;;-144.05;36.30;56972.03;5014391;28;20506;-82
2024/02/29 09:35:10;;;;;;;5.13;2.17;;;9.30;95.60;;;-144.05;35.90;56967.78;5013246;28;20044;-83
2024/02/29 09:37:37;;;;;;;5.43;2.25;;;;;;;-144.05;35.53;56959.28;5014201;28;20511;-81
2024/02/29 09:40:03;;;;;;;5.88;2.55;;;14.40;96.40;;;-144.05;35.83;56989.00;5013571;28;20092;-81
2024/02/29 09:42:32;;;;;;;6.43;2.70;;;14.40;96.90;;;-144.05;35.66;56963.53;5013911;28;20034;-80
2024/02/29 09:44:58;;;;;;;10.20;2.42;;;;;;;-144.05;35.43;56961.41;5014533;28;20036;-82
2024/02/29 09:47:27;;;;;;;6.63;3.13;;;9.90;94.70;;;-144.05;35.81;56965.66;5024712;28;20090;-82
2024/02/29 09:49:56;;;;;;;5.60;2.83;;;;;;;-144.05;36.00;56969.91;5032379;28;20034;-81
2024/02/29 09:52:28;;;;;;;3.95;2.58;;;8.90;95.20;;;-144.05;36.68;56976.28;5014105;28;20061;-80
2024/02/29 09:55:03;;;;;;;5.13;2.58;;;10.90;96.00;;;-144.05;37.39;56986.91;5014904;28;20097;-80
2024/02/29 09:57:33;;;;;;;3.97;2.80;;;;;;;-144.05;36.99;56929.53;5013272;28;20523;-78
2024/02/29 10:00:02;;;;;;;4.68;2.80;;;7.80;96.30;;;-144.05;37.77;57010.25;5013682;28;20034;-81
2024/02/29 10:02:29;;;;;;;3.45;2.15;;;;;;;-144.05;38.22;56974.16;5013449;28;20034;-79
2024/02/29 10:04:55;;;;;;;7.40;2.50;;;9.30;97.10;;;-144.05;38.15;56986.91;5011986;28;20026;-80
2024/02/29 10:07:21;;;;;;;4.40;2.70;;;8.00;96.40;;;-144.05;37.83;56982.66;5028449;28;20124;-79
2024/02/29 10:09:46;;;;;;;3.35;2.58;;;8.40;97.20;;;-144.05;38.17;56986.91;5012459;28;20108;-82
2024/02/29 10:12:18;;;;;;;4.55;3.13;;;8.80;96.70;;;-144.05;38.08;56991.13;5012394;28;20030;-80
2024/02/29 10:14:45;;;;;;;4.07;2.50;;;8.00;96.50;;;-144.05;37.79;56999.63;5013702;28;20093;-81
2024/02/29 10:17:11;;;;;;;3.75;2.60;;;8.80;98.10;;;-144.05;38.85;56961.41;5013018;28;20030;-79
2024/02/29 10:19:38;;;;;;;4.65;2.67;;;14.20;98.60;;;-144.05;37.86;56997.50;5013249;28;20104;-79
2024/02/29 10:22:04;;;;;;;5.40;2.75;;;14.40;98.10;;;-144.05;38.42;56963.53;5011784;28;20037;-80
2024/02/29 10:24:31;;;;;;;5.15;3.25;;;;;;;-144.05;38.31;56963.53;5015310;28;20067;-81
2024/02/29 10:27:05;;;;;;;5.10;2.55;;;14.50;98.70;;;-144.05;38.12;56980.53;5011355;28;20056;-81